Terminal Aerodrome Forecast
Issued by NWS

Home | Current Version | Previous Version | Text Only | Print | Product List | Glossary On
Versions: 1 2 3 4 5 6 7 8 9 10 11 12 13 14 15 16 17 18 19 20
000
FTAK31 PANC 210523
TAFADU
TAF
PADU 210523Z 2106/2206 24004KT P6SM BKN060
     FM211000 29008KT 6SM -SHRA BR BKN015 OVC025
     FM211400 33015G23KT P6SM BKN050
     FM220200 04008KT P6SM SCT250=

USA.gov is the U.S. government's official web portal to all federal, state and local government web resources and services.